Time;durP1;ratioP1;P1;durP2;ratioP2;P2;SDS_P1;SDS_P2;PMS_P1;PMS_P2;Temp;Humidity;BMP_temperature;BMP_pressure;BME280_temperature;BME280_humidity;BME280_pressure;Samples;Min_cycle;Max_cycle;Signal;HPM_P1;HPM_P2
2021/12/23 00:01:38;;;;;;;78.20;38.55;;;-4.90;99.90;;;-6.52;100.00;97796.50;4983181;28;20060;-70
2021/12/23 00:04:05;;;;;;;71.68;33.88;;;-4.80;99.90;;;-6.47;100.00;97786.53;4974837;28;20077;-70
2021/12/23 00:06:33;;;;;;;62.40;31.58;;;-4.80;99.90;;;-6.21;100.00;97783.00;4979580;28;20101;-70
2021/12/23 00:09:03;;;;;;;62.45;30.95;;;-4.80;99.90;;;-6.16;100.00;97785.66;4977867;28;20165;-70
2021/12/23 00:11:33;;;;;;;63.40;28.85;;;;;;;-6.16;100.00;97780.59;4977800;28;20481;-70
2021/12/23 00:14:05;;;;;;;52.00;26.67;;;-4.80;99.90;;;-6.04;100.00;97782.59;4973342;28;20202;-70
2021/12/23 00:16:47;;;;;;;56.45;26.35;;;-4.80;99.90;;;-6.00;100.00;97772.59;4974829;28;20078;-70
2021/12/23 00:24:42;;;;;;;70.00;33.45;;;-4.70;99.90;;;-6.13;100.00;97775.66;4974617;28;20119;-70
2021/12/23 00:27:10;;;;;;;75.30;36.10;;;-4.70;99.90;;;-6.39;100.00;97763.16;4979809;28;20577;-70
2021/12/23 00:29:39;;;;;;;84.07;39.28;;;-4.70;99.90;;;-6.38;100.00;97753.94;4979652;28;20542;-70
2021/12/23 00:32:08;;;;;;;85.32;39.78;;;-4.70;99.90;;;-6.49;100.00;97755.31;4981657;28;20125;-70
2021/12/23 00:34:37;;;;;;;89.85;43.22;;;-4.80;99.90;;;-6.47;100.00;97754.56;4983614;28;20074;-70
2021/12/23 00:37:11;;;;;;;71.10;34.58;;;-4.80;99.90;;;-6.12;100.00;97747.03;4978614;28;20142;-70
2021/12/23 00:39:38;;;;;;;;;;;-4.90;99.90;;;-6.22;100.00;97742.56;4980575;28;20130;-70
2021/12/23 00:42:07;;;;;;;70.95;33.60;;;-4.70;99.90;;;-6.31;100.00;97738.13;4984678;28;20016;-70
2021/12/23 00:44:39;;;;;;;57.90;29.25;;;-4.70;99.90;;;-5.97;100.00;97732.25;4981315;28;20054;-70
2021/12/23 00:47:06;;;;;;;55.13;28.15;;;-4.70;99.90;;;-5.86;100.00;97739.22;4979382;28;20047;-70
2021/12/23 00:49:33;;;;;;;55.70;28.30;;;-4.70;99.90;;;-5.82;100.00;97735.94;4983212;28;20129;-70
2021/12/23 00:52:03;;;;;;;50.38;27.38;;;-4.70;99.90;;;-5.72;100.00;97727.78;4981454;28;20118;-70
2021/12/23 00:54:30;;;;;;;65.90;30.83;;;-4.60;99.90;;;-5.90;100.00;97734.09;4982777;28;20046;-70
2021/12/23 00:56:57;;;;;;;62.15;31.23;;;-4.40;99.90;;;-5.96;100.00;97730.59;4985204;28;20080;-70
2021/12/23 00:59:24;;;;;;;59.47;29.05;;;-4.40;99.90;;;-5.81;100.00;97727.56;4982077;28;20473;-70
2021/12/23 01:01:51;;;;;;;63.42;30.58;;;-4.30;99.90;;;-5.64;100.00;97728.78;4981310;28;20460;-70
2021/12/23 01:04:19;;;;;;;56.75;27.40;;;-4.30;99.90;;;-5.64;100.00;97733.84;4977295;28;20506;-70
2021/12/23 01:06:48;;;;;;;57.92;28.73;;;-4.40;99.90;;;-5.56;100.00;97729.84;4977130;28;20469;-70
2021/12/23 01:09:15;;;;;;;54.22;26.60;;;-4.40;99.90;;;-5.44;100.00;97731.78;4982280;28;20046;-70
2021/12/23 01:11:42;;;;;;;50.63;26.38;;;-4.40;99.90;;;-5.43;100.00;97728.44;4983851;28;20082;-70
2021/12/23 01:19:28;;;;;;;47.45;24.75;;;-4.30;99.90;;;-5.31;100.00;97736.31;4982689;28;20100;-70
2021/12/23 01:21:54;;;;;;;51.72;24.65;;;-4.30;99.90;;;-5.28;100.00;97736.38;4987960;28;20057;-70
2021/12/23 01:24:26;;;;;;;47.53;23.75;;;-4.30;99.90;;;-5.18;100.00;97731.50;5000347;28;20176;-70
2021/12/23 01:26:53;;;;;;;99.95;35.28;;;-4.20;99.90;;;-5.30;100.00;97725.34;4982476;28;20146;-70
2021/12/23 01:29:20;;;;;;;126.95;43.10;;;-4.10;99.90;;;-5.34;100.00;97721.03;4984158;28;20475;-70
2021/12/23 01:31:47;;;;;;;91.60;36.60;;;-4.20;99.90;;;-5.37;100.00;97708.34;4989583;28;20137;-70
2021/12/23 01:34:14;;;;;;;94.75;33.33;;;-4.10;99.90;;;-5.34;100.00;97694.91;4990974;28;20085;-70
2021/12/23 01:36:41;;;;;;;78.88;33.53;;;-4.10;99.90;;;-5.34;100.00;97687.31;4987926;28;20129;-70
2021/12/23 01:39:08;;;;;;;96.13;35.72;;;-4.00;99.90;;;-5.30;100.00;97679.81;4991299;28;20082;-70
2021/12/23 01:41:36;;;;;;;65.15;31.52;;;-4.10;99.90;;;-5.40;100.00;97685.50;4988500;28;20042;-70
2021/12/23 01:44:04;;;;;;;61.55;29.55;;;-4.10;99.90;;;-5.33;100.00;97682.28;4993242;28;20510;-70
2021/12/23 01:46:32;;;;;;;57.97;28.80;;;-4.10;99.90;;;-5.27;100.00;97684.97;4988375;28;20452;-70
2021/12/23 01:48:59;;;;;;;61.15;28.58;;;-4.00;99.90;;;-5.09;100.00;97698.81;4986402;28;20208;-70
2021/12/23 01:51:26;;;;;;;55.97;28.38;;;-3.90;99.90;;;-5.06;100.00;97693.81;4990434;28;20074;-70
2021/12/23 01:53:53;;;;;;;54.67;26.00;;;-3.90;99.90;;;-5.01;100.00;97694.78;4978672;28;20201;-70
2021/12/23 01:56:23;;;;;;;48.83;25.73;;;-3.80;99.90;;;-5.02;100.00;97692.19;4985752;28;20100;-70
2021/12/23 01:58:50;;;;;;;58.42;29.50;;;-3.80;99.90;;;-5.08;100.00;97691.25;4985461;28;20451;-70
2021/12/23 02:01:17;;;;;;;56.88;29.20;;;-3.70;99.90;;;-4.94;100.00;97695.75;4989514;28;20081;-70
2021/12/23 02:03:45;;;;;;;56.63;28.92;;;-3.70;99.90;;;-4.98;100.00;97687.22;4982991;28;20054;-70
2021/12/23 02:06:12;;;;;;;61.45;30.20;;;-3.70;99.90;;;-4.84;100.00;97670.63;4984980;28;20047;-70
2021/12/23 02:08:40;;;;;;;61.80;30.80;;;-3.70;99.90;;;-4.80;100.00;97653.81;4987583;28;20064;-70
2021/12/23 02:11:10;;;;;;;64.38;32.60;;;-3.70;99.90;;;-4.95;100.00;97667.06;4984965;28;20133;-70
2021/12/23 02:13:38;;;;;;;58.30;29.95;;;-3.60;99.90;;;-4.92;100.00;97667.09;4990716;28;20440;-70
2021/12/23 02:16:06;;;;;;;59.55;29.55;;;-3.60;99.90;;;-4.54;100.00;97672.03;4991903;28;20054;-70
2021/12/23 02:18:35;;;;;;;54.83;26.85;;;-3.40;99.90;;;-4.56;100.00;97661.03;4990550;28;20467;-70
2021/12/23 02:21:04;;;;;;;48.53;24.85;;;-3.30;99.90;;;-4.42;100.00;97653.69;4988289;28;20137;-70
2021/12/23 02:23:32;;;;;;;59.70;30.58;;;-3.30;99.90;;;-4.60;100.00;97648.28;4978403;28;20074;-70
2021/12/23 02:26:00;;;;;;;65.07;32.17;;;-3.30;99.90;;;-4.63;100.00;97644.88;4987049;28;20054;-70
2021/12/23 02:28:27;;;;;;;51.88;26.95;;;-3.30;99.90;;;-4.33;100.00;97651.31;5006904;28;20153;-70
2021/12/23 02:30:54;;;;;;;60.95;30.65;;;-3.30;99.90;;;-4.15;100.00;97658.38;4987634;28;20184;-70
2021/12/23 02:33:25;;;;;;;63.67;32.53;;;-3.20;99.90;;;-4.19;100.00;97655.75;4985181;28;20054;-70
2021/12/23 02:35:58;;;;;;;56.28;27.73;;;-3.10;99.90;;;-4.26;100.00;97659.88;4989859;28;20078;-70
2021/12/23 02:38:25;;;;;;;47.80;25.10;;;-3.20;99.90;;;-4.37;100.00;97639.41;4968477;28;20137;-70
2021/12/23 02:40:53;;;;;;;56.25;30.10;;;-3.20;99.90;;;-4.43;100.00;97642.69;4985516;28;20497;-70
2021/12/23 02:43:26;;;;;;;67.40;31.75;;;-3.30;99.90;;;-4.56;100.00;97645.84;4990411;28;20454;-70
2021/12/23 02:45:56;;;;;;;60.53;29.00;;;-3.20;99.90;;;-4.27;100.00;97646.31;4986129;28;20057;-70
2021/12/23 02:48:32;;;;;;;55.53;26.42;;;-3.10;99.90;;;-4.16;100.00;97641.44;4987729;28;20050;-70
2021/12/23 02:51:03;;;;;;;52.92;24.33;;;-3.00;99.90;;;-4.18;100.00;97644.78;4982419;28;20054;-70
2021/12/23 02:53:30;;;;;;;53.50;26.55;;;-3.00;99.90;;;-4.35;100.00;97636.91;4984520;28;20145;-70
2021/12/23 02:56:00;;;;;;;55.00;27.08;;;-3.10;99.90;;;-4.33;100.00;97635.22;4987230;28;20209;-70
2021/12/23 02:58:27;;;;;;;59.17;29.98;;;-3.10;99.90;;;-4.42;100.00;97643.56;4989520;28;20097;-70
2021/12/23 03:00:57;;;;;;;58.75;30.23;;;-3.10;99.90;;;-4.27;100.00;97637.88;4989083;28;20125;-70
2021/12/23 03:03:25;;;;;;;49.58;25.48;;;-3.10;99.90;;;-4.10;100.00;97639.03;4987344;28;20522;-70
2021/12/23 03:05:58;;;;;;;49.90;26.25;;;-3.00;99.90;;;-4.14;100.00;97639.78;4986689;28;20043;-70
2021/12/23 03:08:43;;;;;;;49.60;24.48;;;-3.10;99.90;;;-4.15;100.00;97627.09;4988222;28;20081;-70
2021/12/23 03:11:13;;;;;;;51.25;24.95;;;-3.00;99.90;;;-4.19;100.00;97620.28;4981191;28;20089;-70
2021/12/23 03:13:41;;;;;;;50.42;25.25;;;-3.00;99.90;;;-4.17;100.00;97623.66;4989746;28;20050;-71
2021/12/23 03:16:09;;;;;;;46.88;24.48;;;-3.00;99.90;;;-4.16;100.00;97617.78;4989236;28;20053;-70
2021/12/23 03:18:36;;;;;;;50.72;25.20;;;-3.00;99.90;;;-4.13;100.00;97622.91;4989880;28;20066;-70
2021/12/23 03:21:04;;;;;;;62.30;28.48;;;-3.00;99.90;;;-4.02;100.00;97612.09;4987061;28;20542;-70
2021/12/23 03:23:32;;;;;;;60.25;30.70;;;-3.00;99.90;;;-3.98;100.00;97610.47;4991060;28;20130;-70
2021/12/23 03:26:01;;;;;;;65.57;28.95;;;-2.80;99.90;;;-3.88;100.00;97602.16;4985984;28;20140;-70
2021/12/23 03:28:28;;;;;;;59.65;29.38;;;-2.80;99.90;;;-3.86;100.00;97605.56;4979876;28;20181;-70
2021/12/23 03:30:56;;;;;;;65.40;30.17;;;-2.70;99.90;;;-3.74;100.00;97597.31;4981335;28;20132;-70
2021/12/23 03:33:23;;;;;;;57.38;28.05;;;-2.60;99.90;;;-3.56;100.00;97594.13;4986360;28;20072;-70
2021/12/23 03:35:51;;;;;;;57.22;27.55;;;-2.40;99.90;;;-3.48;100.00;97589.19;4987355;28;20070;-70
2021/12/23 03:38:19;;;;;;;50.25;26.75;;;-2.30;99.90;;;-3.50;100.00;97588.31;4989802;28;20078;-70
2021/12/23 03:40:49;;;;;;;49.15;25.65;;;-2.30;99.90;;;-3.30;100.00;97576.72;4982261;28;20070;-70
2021/12/23 03:43:17;;;;;;;45.28;24.88;;;-2.20;99.90;;;-3.30;100.00;97570.81;4987636;28;20046;-70
2021/12/23 03:45:49;;;;;;;52.03;26.40;;;-2.10;99.90;;;-3.40;100.00;97574.88;4988004;28;21119;-70
2021/12/23 03:48:17;;;;;;;57.30;27.20;;;-2.10;99.90;;;-3.25;100.00;97571.69;4986377;28;20145;-70
2021/12/23 03:50:46;;;;;;;52.00;26.00;;;-2.10;99.90;;;-3.19;100.00;97579.41;4984138;28;20050;-70
2021/12/23 03:53:15;;;;;;;55.17;26.15;;;-2.00;99.90;;;-3.11;100.00;97587.94;4984795;28;20153;-70
2021/12/23 03:55:42;;;;;;;54.15;25.02;;;-1.90;99.90;;;-3.03;100.00;97583.81;4983182;28;20547;-70
2021/12/23 03:58:09;;;;;;;47.50;24.60;;;-1.80;99.90;;;-2.99;100.00;97577.06;4984842;28;20133;-70
2021/12/23 04:00:37;;;;;;;49.45;23.40;;;-1.70;99.90;;;-3.03;100.00;97575.34;4989246;28;20157;-70
2021/12/23 04:03:04;;;;;;;54.78;28.17;;;-1.70;99.90;;;-3.18;100.00;97573.47;4987174;28;20137;-70
2021/12/23 04:05:31;;;;;;;52.15;25.50;;;-1.80;99.90;;;-3.17;100.00;97568.41;4987704;28;20522;-70
2021/12/23 04:07:58;;;;;;;46.10;24.92;;;-1.90;99.90;;;-3.22;100.00;97567.50;4982463;28;20047;-70
2021/12/23 04:10:25;;;;;;;41.70;22.20;;;-1.90;99.90;;;-2.98;100.00;97559.31;4988224;28;20125;-70
2021/12/23 04:12:53;;;;;;;49.70;25.55;;;-1.90;99.90;;;-2.94;100.00;97555.13;4987769;28;20074;-70
2021/12/23 04:15:21;;;;;;;53.08;26.33;;;-1.90;99.90;;;-2.79;100.00;97562.88;4986299;28;20054;-70
2021/12/23 04:17:49;;;;;;;55.17;26.88;;;-1.70;99.90;;;-2.79;100.00;97552.72;4980865;28;20124;-70
2021/12/23 04:20:20;;;;;;;53.67;25.90;;;-1.60;99.90;;;-2.84;100.00;97540.81;4986779;28;20038;-70
2021/12/23 04:22:54;;;;;;;54.17;26.50;;;-1.60;99.90;;;-2.74;100.00;97532.44;4985142;28;20112;-70
2021/12/23 04:25:23;;;;;;;;;;;-1.60;99.90;;;-2.68;100.00;97529.97;4983683;28;20051;-70
2021/12/23 04:27:53;;;;;;;50.60;24.88;;;-1.40;99.90;;;-2.66;100.00;97515.59;4987302;28;19922;-70
2021/12/23 04:30:22;;;;;;;61.78;25.88;;;-1.40;99.90;;;-2.67;100.00;97513.88;4982981;28;20053;-70
2021/12/23 04:32:50;;;;;;;45.13;22.90;;;-1.30;99.90;;;-2.45;100.00;97502.19;4990032;28;20403;-70
2021/12/23 04:35:17;;;;;;;56.40;25.50;;;-1.30;99.90;;;-2.32;100.00;97504.00;4980184;28;20582;-70
2021/12/23 04:37:43;;;;;;;55.60;25.40;;;-1.10;99.90;;;-2.28;100.00;97499.78;4987432;28;20089;-70
2021/12/23 04:40:13;;;;;;;51.70;24.95;;;-1.10;99.90;;;-2.38;100.00;97498.84;4986164;28;20125;-70
2021/12/23 04:42:41;;;;;;;54.42;24.70;;;-1.00;99.90;;;-2.26;100.00;97502.31;4967340;28;20081;-70
2021/12/23 04:45:09;;;;;;;54.22;26.63;;;-1.00;99.90;;;-2.19;100.00;97511.69;4983081;28;20499;-70
2021/12/23 04:47:37;;;;;;;66.03;30.77;;;-0.90;99.90;;;-2.08;100.00;97520.25;4986066;28;20449;-70
2021/12/23 04:50:07;;;;;;;65.18;31.98;;;-0.90;99.90;;;-2.09;100.00;97521.09;4988496;28;20046;-70
2021/12/23 04:52:35;;;;;;;54.05;26.38;;;-0.90;99.90;;;-2.17;100.00;97518.47;4980005;28;20133;-70
2021/12/23 04:55:02;;;;;;;52.80;25.58;;;-0.90;99.90;;;-2.21;100.00;97523.53;4986421;28;20134;-70
2021/12/23 04:57:29;;;;;;;52.25;26.80;;;-0.90;99.90;;;-2.24;100.00;97521.81;4982732;28;20128;-68
2021/12/23 04:59:57;;;;;;;49.47;24.20;;;-0.90;99.90;;;-2.26;100.00;97513.34;4986101;28;20054;-70
2021/12/23 05:02:24;;;;;;;54.63;25.73;;;-1.00;99.90;;;-2.28;100.00;97514.16;4982964;28;20125;-70
2021/12/23 05:04:51;;;;;;;54.58;25.17;;;-1.10;99.90;;;-2.14;100.00;97512.59;4987380;28;20055;-70
2021/12/23 05:07:19;;;;;;;52.10;25.20;;;-1.10;99.90;;;-2.17;100.00;97518.47;4986128;28;20450;-70
2021/12/23 05:09:47;;;;;;;54.88;25.65;;;-1.10;99.90;;;-2.15;100.00;97518.50;4987396;28;20138;-70
2021/12/23 05:12:14;;;;;;;68.47;30.25;;;-1.00;99.90;;;-2.13;100.00;97511.75;4987902;28;20507;-70
2021/12/23 05:14:41;;;;;;;54.55;26.33;;;-1.00;99.90;;;-2.18;100.00;97506.63;4982024;28;20089;-70
2021/12/23 05:17:08;;;;;;;56.45;28.17;;;-1.00;99.90;;;-1.98;100.00;97500.81;4989236;28;20133;-70
2021/12/23 05:19:35;;;;;;;44.72;22.33;;;-0.90;99.90;;;-1.84;100.00;97501.75;4984581;28;20129;-70
2021/12/23 05:22:03;;;;;;;47.65;23.45;;;-0.80;99.90;;;-1.71;100.00;97507.72;4960931;28;20452;-71
2021/12/23 05:24:30;;;;;;;42.78;20.70;;;-0.70;99.90;;;-1.67;100.00;97499.25;4982131;28;20146;-70
2021/12/23 05:26:57;;;;;;;45.33;23.10;;;-0.60;99.90;;;-1.65;100.00;97494.19;4986782;28;20054;-70
2021/12/23 05:29:24;;;;;;;38.53;20.35;;;-0.50;99.90;;;-1.66;100.00;97497.59;4981365;28;20481;-70
2021/12/23 05:31:51;;;;;;;47.97;23.20;;;-0.50;99.90;;;-1.57;100.00;97505.25;4987369;28;20050;-70
2021/12/23 05:34:21;;;;;;;52.90;23.85;;;-0.40;99.90;;;-1.50;100.00;97505.28;4988136;28;20124;-70
2021/12/23 05:36:50;;;;;;;47.45;22.60;;;-0.40;99.90;;;-1.50;100.00;97507.84;4987931;28;20085;-70
2021/12/23 05:39:18;;;;;;;51.08;24.92;;;-0.40;99.90;;;-1.53;100.00;97512.03;4983349;28;20137;-70
2021/12/23 05:41:45;;;;;;;56.22;24.35;;;-0.30;99.90;;;-1.56;100.00;97512.88;4984112;28;20137;-70
2021/12/23 05:44:12;;;;;;;47.05;23.73;;;-0.30;99.90;;;-1.49;100.00;97506.13;4988468;28;20077;-70
2021/12/23 05:46:40;;;;;;;41.22;20.17;;;-0.30;99.90;;;-1.40;100.00;97498.53;4988853;28;20142;-70
2021/12/23 05:49:07;;;;;;;46.55;21.83;;;-0.30;99.90;;;-1.47;100.00;97501.91;4986882;28;20046;-70
2021/12/23 05:51:35;;;;;;;49.53;22.85;;;-0.10;99.90;;;-1.53;100.00;97484.91;4986049;28;20479;-70
2021/12/23 05:54:02;;;;;;;44.15;22.63;;;-0.10;99.90;;;-1.45;100.00;97486.63;4984503;28;20050;-70
2021/12/23 05:56:31;;;;;;;54.42;25.25;;;-0.20;99.90;;;-1.49;100.00;97475.59;4984187;28;20055;-70
2021/12/23 05:58:58;;;;;;;50.63;24.75;;;-0.20;99.90;;;-1.43;100.00;97474.78;4959778;28;20125;-70
2021/12/23 06:01:26;;;;;;;46.60;23.17;;;-0.20;99.90;;;-1.41;100.00;97468.00;4981340;28;20333;-71
2021/12/23 06:03:53;;;;;;;43.50;20.95;;;-0.20;99.90;;;-1.42;100.00;97468.81;4987863;28;20073;-70
2021/12/23 06:06:20;;;;;;;54.05;27.65;;;-0.30;99.90;;;-1.50;100.00;97486.63;4984795;28;20129;-70
2021/12/23 06:08:47;;;;;;;48.28;23.77;;;-0.20;99.90;;;-1.49;100.00;97485.75;4986760;28;20133;-70
2021/12/23 06:11:14;;;;;;;56.13;28.08;;;-0.20;99.90;;;-1.48;100.00;97490.03;4988356;28;20594;-70
2021/12/23 06:13:41;;;;;;;52.90;25.88;;;-0.30;99.90;;;-1.53;100.00;97474.75;4987374;28;20456;-70
2021/12/23 06:16:08;;;;;;;49.22;24.35;;;-0.30;99.90;;;-1.42;100.00;97464.56;4988995;28;20074;-70
2021/12/23 06:18:36;;;;;;;49.65;24.42;;;-0.30;99.90;;;-1.42;100.00;97462.03;4991202;28;20150;-70
2021/12/23 06:21:03;;;;;;;47.67;23.65;;;-0.30;99.90;;;-1.50;100.00;97462.00;4986247;28;20057;-70
2021/12/23 06:23:31;;;;;;;58.15;26.23;;;-0.30;99.90;;;-1.53;100.00;97474.75;4987585;28;20445;-70
2021/12/23 06:25:58;;;;;;;45.05;23.13;;;-0.30;99.90;;;-1.50;100.00;97474.75;4991122;28;20121;-70
2021/12/23 06:28:26;;;;;;;49.00;24.17;;;-0.30;99.90;;;-1.47;100.00;97479.00;4982561;28;20134;-70
2021/12/23 06:30:53;;;;;;;51.60;24.20;;;-0.30;99.90;;;-1.47;100.00;97453.53;4987042;28;20085;-70
2021/12/23 06:33:20;;;;;;;48.53;25.60;;;-0.40;99.90;;;-1.49;100.00;97442.50;4985373;28;20058;-70
2021/12/23 06:35:50;;;;;;;45.42;22.98;;;-0.40;99.90;;;-1.47;100.00;97451.81;4986181;28;20479;-70
2021/12/23 06:38:17;;;;;;;53.88;25.55;;;-0.30;99.90;;;-1.52;100.00;97442.50;4990025;28;20145;-70
2021/12/23 06:40:44;;;;;;;51.88;23.55;;;-0.30;99.90;;;-1.39;100.00;97434.03;4989603;28;20137;-70
2021/12/23 06:43:11;;;;;;;50.90;25.92;;;-0.20;99.90;;;-1.39;100.00;97441.69;4985273;28;20060;-70
2021/12/23 06:45:38;;;;;;;49.17;24.65;;;-0.20;99.90;;;-1.35;100.00;97456.09;4990778;28;20066;-70
2021/12/23 06:48:05;;;;;;;48.15;24.45;;;-0.20;99.90;;;-1.33;100.00;97446.78;4985888;28;20486;-70
2021/12/23 06:50:32;;;;;;;46.97;22.00;;;-0.10;99.90;;;-1.34;100.00;97445.09;4989231;28;20133;-70
2021/12/23 06:52:59;;;;;;;59.28;26.70;;;-0.10;99.90;;;-1.34;100.00;97455.28;4989190;28;20074;-70
2021/12/23 06:55:27;;;;;;;49.50;24.63;;;-0.10;99.90;;;-1.33;100.00;97451.88;4985344;28;20368;-70
2021/12/23 06:57:56;;;;;;;52.33;22.65;;;-0.10;99.90;;;-1.23;100.00;97464.63;4987730;28;20120;-70
2021/12/23 07:00:28;;;;;;;49.63;23.17;;;0.00;99.90;;;-1.27;100.00;97451.03;4987222;28;20177;-70
2021/12/23 07:02:56;;;;;;;48.80;24.63;;;-0.10;99.90;;;-1.31;100.00;97441.69;4986040;28;20049;-70
2021/12/23 07:05:24;;;;;;;46.55;23.52;;;-0.10;99.90;;;-1.19;100.00;97443.41;4984641;28;20465;-70
2021/12/23 07:08:04;;;;;;;57.67;26.83;;;-0.10;99.90;;;-1.22;100.00;97451.91;4988918;28;20078;-70
2021/12/23 07:10:32;;;;;;;57.78;27.08;;;0.00;99.90;;;-1.15;100.00;97463.78;4989036;28;20069;-70
2021/12/23 07:13:00;;;;;;;59.70;26.63;;;0.10;99.90;;;-1.06;100.00;97468.06;4991449;28;20096;-70
2021/12/23 07:15:28;;;;;;;52.80;27.38;;;0.10;99.90;;;-1.07;100.00;97459.56;4987293;28;20478;-70
2021/12/23 07:17:57;;;;;;;52.95;26.63;;;0.10;99.90;;;-1.22;100.00;97456.16;4989754;28;20047;-70
2021/12/23 07:20:26;;;;;;;48.80;23.60;;;0.10;99.90;;;-1.14;100.00;97469.72;4981606;28;20125;-70
2021/12/23 07:22:53;;;;;;;44.35;22.50;;;0.10;99.90;;;-1.10;100.00;97463.78;4987177;28;20124;-70
2021/12/23 07:25:21;;;;;;;56.05;27.58;;;0.00;99.90;;;-1.15;100.00;97465.50;4987928;28;20060;-70
2021/12/23 07:27:48;;;;;;;64.88;29.65;;;0.10;99.90;;;-1.20;100.00;97468.03;4986033;28;20121;-70
2021/12/23 07:30:21;;;;;;;54.08;24.63;;;0.10;99.90;;;-1.16;100.00;97474.00;4983273;28;20049;-70
2021/12/23 07:32:49;;;;;;;59.90;28.50;;;0.10;99.90;;;-1.12;100.00;97434.91;4988143;28;20069;-70
2021/12/23 07:35:18;;;;;;;51.63;24.35;;;0.00;99.90;;;-1.11;100.00;97442.56;4986527;28;20133;-70
2021/12/23 07:37:46;;;;;;;54.67;26.70;;;0.10;99.90;;;-1.13;100.00;97472.28;4986875;28;20074;-70
2021/12/23 07:40:15;;;;;;;56.63;27.58;;;0.10;99.90;;;-1.14;100.00;97468.06;4987207;28;20070;-70
2021/12/23 07:42:53;;;;;;;46.13;22.40;;;0.20;99.90;;;-1.04;100.00;97457.88;4985978;28;20133;-68
2021/12/23 07:45:25;;;;;;;51.00;25.60;;;0.10;99.90;;;-1.09;100.00;97463.81;4991258;28;20502;-70
2021/12/23 07:47:53;;;;;;;53.88;28.35;;;0.10;99.90;;;-1.10;100.00;97459.53;4983555;28;20463;-70
2021/12/23 07:50:21;;;;;;;50.50;24.35;;;0.30;99.90;;;-1.05;100.00;97457.00;4989246;28;20104;-70
2021/12/23 07:52:48;;;;;;;49.47;25.02;;;0.20;99.90;;;-1.06;100.00;97442.59;4989753;28;20427;-70
2021/12/23 07:55:15;;;;;;;45.42;21.73;;;0.20;99.90;;;-1.03;100.00;97444.28;4982955;28;20051;-70
2021/12/23 07:57:42;;;;;;;48.97;26.40;;;0.20;99.90;;;-0.90;100.00;97435.81;4988674;28;20085;-70
2021/12/23 08:00:10;;;;;;;49.95;24.65;;;0.20;99.90;;;-0.94;100.00;97437.47;4988441;28;20086;-70
2021/12/23 08:02:38;;;;;;;50.90;25.75;;;0.20;99.90;;;-0.86;100.00;97435.81;4984642;28;20054;-70
2021/12/23 08:05:06;;;;;;;51.17;26.80;;;0.30;99.90;;;-0.90;100.00;97439.19;4986016;28;20046;-70
2021/12/23 08:07:33;;;;;;;50.42;25.08;;;0.30;99.90;;;-0.77;100.00;97434.13;4990497;28;20129;-70
2021/12/23 08:10:00;;;;;;;56.85;25.10;;;0.40;99.90;;;-0.97;100.00;97450.22;4989637;28;20085;-70
2021/12/23 08:12:28;;;;;;;46.63;23.80;;;0.40;99.90;;;-0.69;100.00;97430.69;4991467;28;20088;-70
2021/12/23 08:14:55;;;;;;;40.35;20.67;;;0.50;99.90;;;-0.73;100.00;97430.69;4988286;28;20069;-70
2021/12/23 08:17:37;;;;;;;45.28;22.92;;;0.50;99.90;;;-0.64;100.00;97436.66;4989396;28;20137;-70
2021/12/23 08:20:12;;;;;;;47.47;23.67;;;0.60;99.90;;;-0.59;100.00;97435.78;4987221;28;20046;-70
2021/12/23 08:22:40;;;;;;;53.33;25.95;;;0.60;99.90;;;-0.61;100.00;97438.34;4985769;28;20154;-70
2021/12/23 08:25:09;;;;;;;41.65;21.52;;;0.60;99.90;;;-0.60;100.00;97442.59;4984603;28;20510;-70
2021/12/23 08:27:37;;;;;;;42.65;21.75;;;0.60;99.90;;;-0.50;100.00;97421.34;4971841;28;20054;-70
2021/12/23 08:30:07;;;;;;;46.35;23.15;;;0.70;99.90;;;-0.56;100.00;97420.50;4984413;28;20138;-70
2021/12/23 08:32:35;;;;;;;48.60;23.02;;;0.70;99.90;;;-0.57;100.00;97434.97;4982446;28;20053;-70
2021/12/23 08:35:02;;;;;;;40.17;18.55;;;0.80;99.90;;;-0.44;100.00;97428.13;4977105;28;20574;-70
2021/12/23 08:37:34;;;;;;;46.70;24.67;;;0.80;99.90;;;-0.43;100.00;97440.03;4983185;28;20529;-70
2021/12/23 08:40:01;;;;;;;47.75;23.95;;;0.90;99.90;;;-0.44;100.00;97439.16;4984545;28;20133;-70
2021/12/23 08:42:28;;;;;;;40.70;19.63;;;1.00;99.90;;;-0.34;100.00;97432.38;4982430;28;20133;-68
2021/12/23 08:44:55;;;;;;;41.83;20.83;;;0.90;99.90;;;-0.25;100.00;97422.16;4982826;28;20125;-70
2021/12/23 08:47:22;;;;;;;47.17;22.65;;;0.90;99.90;;;-0.28;100.00;97417.03;4980582;28;20080;-70
2021/12/23 08:49:49;;;;;;;46.60;23.40;;;0.90;99.90;;;-0.28;100.00;97416.19;4986540;28;20443;-70
2021/12/23 08:52:16;;;;;;;43.35;21.30;;;0.90;99.90;;;-0.29;100.00;97423.00;4984821;28;20133;-68
2021/12/23 08:54:43;;;;;;;46.90;24.55;;;0.90;99.90;;;-0.22;100.00;97418.75;4989638;28;20130;-69
2021/12/23 08:57:10;;;;;;;47.63;24.90;;;1.00;99.90;;;-0.15;100.00;97412.78;4986527;28;20530;-70
2021/12/23 08:59:38;;;;;;;44.97;25.25;;;1.00;99.90;;;-0.21;100.00;97417.88;4988282;28;20428;-70
2021/12/23 09:02:06;;;;;;;46.45;22.42;;;1.00;99.90;;;-0.16;100.00;97403.44;4985164;28;20441;-70
2021/12/23 09:04:34;;;;;;;50.75;22.40;;;1.00;99.90;;;-0.13;100.00;97402.56;4983067;28;20107;-70
2021/12/23 09:07:02;;;;;;;41.75;20.63;;;1.00;99.90;;;-0.24;100.00;97400.03;4984914;28;20054;-71
2021/12/23 09:09:32;;;;;;;44.92;21.48;;;1.10;99.90;;;-0.20;100.00;97423.84;4985671;28;20208;-70
2021/12/23 09:12:01;;;;;;;47.88;22.90;;;1.20;99.90;;;-0.17;100.00;97403.44;4984568;28;20150;-70
2021/12/23 09:14:28;;;;;;;44.20;21.27;;;1.30;99.90;;;-0.23;100.00;97404.28;4988211;28;20048;-70
2021/12/23 09:16:55;;;;;;;46.22;24.40;;;1.30;99.90;;;-0.13;100.00;97405.13;4980091;28;20138;-70
2021/12/23 09:19:22;;;;;;;47.45;22.48;;;1.30;99.90;;;-0.02;100.00;97404.22;4985640;28;20114;-70
2021/12/23 09:21:49;;;;;;;53.65;28.55;;;1.30;99.90;;;0.03;100.00;97416.13;4986176;28;20047;-68
2021/12/23 09:24:18;;;;;;;45.90;24.10;;;1.30;99.90;;;0.05;100.00;97422.91;4986535;28;20081;-68
2021/12/23 09:26:53;;;;;;;51.08;24.67;;;1.50;99.90;;;0.14;100.00;97434.81;4985026;28;20161;-68
2021/12/23 09:34:53;;;;;;;34.38;19.80;;;1.60;99.90;;;0.35;100.00;97433.88;4983385;28;20066;-68
2021/12/23 09:37:23;;;;;;;42.40;23.38;;;1.60;99.90;;;0.33;100.00;97421.09;4985639;28;20689;-68
2021/12/23 09:39:55;;;;;;;42.70;23.45;;;1.70;99.90;;;0.36;100.00;97423.63;4987732;28;20145;-68
2021/12/23 09:42:30;;;;;;;44.55;22.00;;;1.70;99.90;;;0.34;100.00;97440.69;4988975;28;20056;-70
2021/12/23 09:45:05;;;;;;;44.92;23.25;;;1.80;99.90;;;0.36;100.00;97433.00;4989387;28;20148;-71
2021/12/23 09:47:35;;;;;;;40.33;20.67;;;1.80;99.90;;;0.36;100.00;97431.28;4985730;28;20046;-70
2021/12/23 09:50:09;;;;;;;40.97;21.45;;;1.90;99.90;;;0.54;100.00;97422.69;4986593;28;20124;-70
2021/12/23 09:52:43;;;;;;;37.38;19.65;;;2.00;99.90;;;0.61;100.00;97410.72;4987466;28;20088;-70
2021/12/23 09:55:14;;;;;;;41.00;20.75;;;1.90;99.90;;;0.69;100.00;97401.34;4987091;28;20422;-70
2021/12/23 09:57:42;;;;;;;36.13;20.85;;;1.90;99.90;;;0.66;100.00;97414.09;4990182;28;20128;-70
2021/12/23 10:00:11;;;;;;;39.90;19.20;;;1.90;99.90;;;0.60;100.00;97409.91;4983457;28;20133;-70
2021/12/23 10:02:41;;;;;;;36.60;19.70;;;2.00;99.90;;;0.74;100.00;97412.34;4988658;28;20370;-70
2021/12/23 10:05:18;;;;;;;43.67;22.83;;;2.10;99.90;;;0.70;100.00;97412.38;4987226;28;20061;-70
2021/12/23 10:07:47;;;;;;;39.92;21.25;;;2.10;99.90;;;0.85;100.00;97402.09;4985091;28;20154;-70
2021/12/23 10:38:33;;;;;;;31.90;16.83;;;2.70;99.90;;;1.42;100.00;97364.09;4953068;28;20082;-70
2021/12/23 10:41:13;;;;;;;35.22;19.02;;;2.70;99.90;;;1.48;100.00;97354.66;4992810;28;20473;-70
2021/12/23 10:43:49;;;;;;;32.80;17.95;;;2.80;99.90;;;1.50;100.00;97356.34;4989204;28;20129;-69
2021/12/23 10:46:34;;;;;;;32.83;17.65;;;2.80;99.90;;;1.38;100.00;97359.88;4972158;28;20132;-69
2021/12/23 11:00:26;;;;;;;29.55;15.82;;;3.10;99.90;;;1.85;100.00;97320.16;4981363;28;20571;-70
2021/12/23 11:03:16;;;;;;;29.67;15.60;;;3.00;99.90;;;1.85;100.00;97309.91;4990232;28;20063;-70
2021/12/23 11:06:05;;;;;;;34.72;17.10;;;3.20;99.90;;;1.94;100.00;97326.00;4986119;28;20082;-70